Time;durP1;ratioP1;P1;durP2;ratioP2;P2;SDS_P1;SDS_P2;PMS_P1;PMS_P2;Temp;Humidity;BMP_temperature;BMP_pressure;BME280_temperature;BME280_humidity;BME280_pressure;Samples;Min_cycle;Max_cycle;Signal;HPM_P1;HPM_P2
2021/01/30 00:00:30;;;;;;;9.27;1.80;;;20.90;43.20;;;;;;4826527;29;20071;-72
2021/01/30 00:03:14;;;;;;;3.55;0.88;;;20.80;43.30;;;;;;4794640;29;20463;-72
2021/01/30 00:05:40;;;;;;;5.90;1.50;;;20.80;43.20;;;;;;4794573;29;20042;-71
2021/01/30 00:08:06;;;;;;;5.63;1.42;;;20.80;43.20;;;;;;4826094;29;20506;-72
2021/01/30 00:10:32;;;;;;;10.85;2.15;;;20.80;43.30;;;;;;4825893;29;20412;-71
2021/01/30 00:12:57;;;;;;;7.00;1.95;;;20.80;43.30;;;;;;4825261;29;20063;-72
2021/01/30 00:15:24;;;;;;;9.95;2.20;;;20.80;44.00;;;;;;4809658;29;20060;-72
2021/01/30 00:17:50;;;;;;;7.32;1.60;;;20.80;43.40;;;;;;4826245;29;20042;-72
2021/01/30 00:20:25;;;;;;;12.63;2.10;;;20.80;44.00;;;;;;4810019;29;20030;-72
2021/01/30 00:22:51;;;;;;;11.45;2.40;;;20.80;43.40;;;;;;4808512;29;20122;-72
2021/01/30 00:25:20;;;;;;;11.13;2.25;;;20.80;43.40;;;;;;4825747;29;20053;-72
2021/01/30 00:27:48;;;;;;;8.77;2.17;;;20.70;43.30;;;;;;4825975;29;20030;-71
2021/01/30 00:30:19;;;;;;;12.75;2.17;;;20.70;43.40;;;;;;4810078;29;20031;-75
2021/01/30 00:32:44;;;;;;;11.13;2.20;;;20.70;43.40;;;;;;4779177;29;20034;-75
2021/01/30 00:35:11;;;;;;;10.20;2.30;;;20.70;43.40;;;;;;4810232;29;20427;-74
2021/01/30 00:37:36;;;;;;;12.82;2.33;;;20.70;43.40;;;;;;4808508;29;20071;-75
2021/01/30 00:40:02;;;;;;;10.32;1.90;;;20.70;43.40;;;;;;4809385;29;20470;-75
2021/01/30 00:42:28;;;;;;;9.45;2.13;;;20.70;43.50;;;;;;4825479;29;20026;-75
2021/01/30 00:44:54;;;;;;;11.43;2.33;;;20.70;43.50;;;;;;4825118;29;20083;-71
2021/01/30 00:47:20;;;;;;;8.65;1.17;;;20.70;43.50;;;;;;4794340;29;20036;-72
2021/01/30 00:49:46;;;;;;;9.10;1.65;;;20.60;43.50;;;;;;4808850;29;20042;-72
2021/01/30 00:52:13;;;;;;;10.70;2.17;;;20.60;43.50;;;;;;4825608;29;20030;-71
2021/01/30 00:54:39;;;;;;;8.02;2.08;;;20.60;43.50;;;;;;4794259;29;20064;-72
2021/01/30 00:57:08;;;;;;;10.85;1.85;;;20.60;43.60;;;;;;4800860;29;20030;-72
2021/01/30 00:59:33;;;;;;;7.55;1.60;;;20.60;43.60;;;;;;4827212;29;20042;-72
2021/01/30 01:01:59;;;;;;;8.45;1.60;;;20.60;43.60;;;;;;4831674;29;20113;-72
2021/01/30 01:04:24;;;;;;;9.55;2.10;;;20.60;43.60;;;;;;4825506;29;20038;-72
2021/01/30 01:06:50;;;;;;;5.35;1.38;;;20.60;43.60;;;;;;4809136;29;20034;-72
2021/01/30 01:09:16;;;;;;;7.22;1.52;;;20.60;43.70;;;;;;4825351;29;20037;-72
2021/01/30 01:11:43;;;;;;;5.63;1.38;;;20.60;43.60;;;;;;4793635;29;20151;-72
2021/01/30 01:14:09;;;;;;;7.28;1.85;;;20.60;43.60;;;;;;4793877;29;20047;-72
2021/01/30 01:16:34;;;;;;;8.52;1.88;;;20.60;43.70;;;;;;4807673;29;20384;-72
2021/01/30 01:19:00;;;;;;;11.52;2.72;;;20.60;43.70;;;;;;4793988;29;20044;-72
2021/01/30 01:21:26;;;;;;;8.88;2.10;;;20.60;44.20;;;;;;4823183;29;20081;-72
2021/01/30 01:23:51;;;;;;;10.90;2.40;;;20.60;43.60;;;;;;4808797;29;20525;-72
2021/01/30 01:26:17;;;;;;;12.50;2.50;;;20.60;43.60;;;;;;4808699;29;20035;-71
2021/01/30 01:28:43;;;;;;;9.60;2.45;;;20.60;43.60;;;;;;4793283;29;20054;-72
2021/01/30 01:31:10;;;;;;;11.35;2.55;;;20.60;43.60;;;;;;4808056;29;20040;-71
2021/01/30 01:33:35;;;;;;;12.07;2.75;;;20.60;43.60;;;;;;4793344;29;20046;-72
2021/01/30 01:36:01;;;;;;;9.65;2.50;;;20.60;44.30;;;;;;4808627;29;20065;-72
2021/01/30 01:38:27;;;;;;;13.18;2.92;;;20.60;43.60;;;;;;4825215;29;20030;-71
2021/01/30 01:40:52;;;;;;;13.48;2.88;;;20.60;43.60;;;;;;4808282;29;20114;-72
2021/01/30 01:43:22;;;;;;;7.93;1.75;;;20.60;43.60;;;;;;4824757;29;20034;-72
2021/01/30 01:46:05;;;;;;;9.65;2.38;;;20.60;43.70;;;;;;4808562;29;20042;-72
2021/01/30 01:48:32;;;;;;;11.45;2.30;;;20.60;43.60;;;;;;4806129;29;20064;-71
2021/01/30 01:50:58;;;;;;;12.65;2.35;;;20.60;43.60;;;;;;4808684;29;20042;-72
2021/01/30 01:53:26;;;;;;;10.52;1.95;;;20.60;43.70;;;;;;4793582;29;20035;-72
2021/01/30 01:55:58;;;;;;;14.95;2.53;;;20.60;43.70;;;;;;4824422;29;20026;-72
2021/01/30 01:58:24;;;;;;;9.45;2.28;;;20.60;43.70;;;;;;4810506;29;20125;-72
2021/01/30 02:00:49;;;;;;;12.57;2.08;;;20.60;43.70;;;;;;4808756;29;20107;-71
2021/01/30 02:03:19;;;;;;;9.05;2.10;;;20.60;43.70;;;;;;4792983;29;20085;-72
2021/01/30 02:05:44;;;;;;;7.38;2.10;;;20.60;43.70;;;;;;4793542;29;20034;-72
2021/01/30 02:08:14;;;;;;;10.75;2.08;;;20.50;43.70;;;;;;4778603;29;20050;-71
2021/01/30 02:10:42;;;;;;;10.90;2.30;;;20.50;43.70;;;;;;4792507;29;20042;-72
2021/01/30 02:13:30;;;;;;;14.15;2.90;;;20.50;43.70;;;;;;4824360;29;20061;-72
2021/01/30 02:16:02;;;;;;;11.38;2.17;;;20.50;43.70;;;;;;4809430;29;20029;-72
2021/01/30 02:18:46;;;;;;;12.38;2.28;;;20.50;43.70;;;;;;4807502;29;20034;-72
2021/01/30 02:21:21;;;;;;;7.93;1.85;;;20.50;43.70;;;;;;4823925;29;20419;-71
2021/01/30 02:24:29;;;;;;;10.37;1.80;;;20.50;43.70;;;;;;4823731;29;20109;-72
2021/01/30 02:27:10;;;;;;;10.60;2.45;;;20.50;43.70;;;;;;4800201;29;20048;-71
2021/01/30 02:30:04;;;;;;;15.15;2.47;;;20.50;43.70;;;;;;4824001;29;20038;-72
2021/01/30 02:32:50;;;;;;;13.70;2.60;;;20.50;43.80;;;;;;4808664;29;20515;-71
2021/01/30 02:35:25;;;;;;;7.80;2.00;;;20.50;43.70;;;;;;4808508;29;20041;-72
2021/01/30 02:38:05;;;;;;;9.48;2.17;;;20.50;43.80;;;;;;4815621;29;20026;-71
2021/01/30 02:40:35;;;;;;;13.07;2.10;;;20.50;43.80;;;;;;4793607;29;20155;-72
2021/01/30 02:43:05;;;;;;;14.15;2.33;;;20.50;43.80;;;;;;4807457;29;20395;-74
2021/01/30 02:45:34;;;;;;;12.35;2.63;;;20.50;43.90;;;;;;4777670;29;20380;-74
2021/01/30 02:48:24;;;;;;;5.78;1.92;;;20.40;43.80;;;;;;4791679;29;20033;-74
2021/01/30 02:50:53;;;;;;;10.95;2.17;;;20.40;43.80;;;;;;4793098;29;20042;-73
2021/01/30 02:53:21;;;;;;;10.88;2.30;;;20.40;43.80;;;;;;4807934;29;20038;-75
2021/01/30 02:55:47;;;;;;;12.95;2.22;;;20.50;43.90;;;;;;4792683;29;20131;-74
2021/01/30 02:58:16;;;;;;;10.98;1.80;;;20.40;43.80;;;;;;4792592;29;20523;-74
2021/01/30 03:00:42;;;;;;;16.83;2.83;;;20.50;43.90;;;;;;4792114;29;20042;-74
2021/01/30 03:03:07;;;;;;;8.93;2.33;;;20.40;43.80;;;;;;4791699;29;20411;-74
2021/01/30 03:05:33;;;;;;;13.15;2.70;;;20.50;43.80;;;;;;4791911;29;20080;-74
2021/01/30 03:08:02;;;;;;;10.93;2.03;;;20.50;43.80;;;;;;4806868;29;20042;-75
2021/01/30 03:10:44;;;;;;;11.57;2.78;;;20.50;43.70;;;;;;4806921;29;20046;-74
2021/01/30 03:13:21;;;;;;;13.27;2.78;;;20.50;43.80;;;;;;4807623;29;20099;-75
2021/01/30 03:15:52;;;;;;;10.38;2.55;;;20.50;43.70;;;;;;4820408;29;20030;-74
2021/01/30 03:18:27;;;;;;;13.85;2.55;;;20.50;43.80;;;;;;4822278;29;20526;-75
2021/01/30 03:20:53;;;;;;;9.93;2.80;;;20.40;43.70;;;;;;4792359;29;20050;-74
2021/01/30 03:23:19;;;;;;;10.68;2.03;;;20.50;43.70;;;;;;4792238;29;20039;-74
2021/01/30 03:25:45;;;;;;;12.02;2.60;;;20.50;43.70;;;;;;4791809;29;20064;-74
2021/01/30 03:28:11;;;;;;;14.52;2.80;;;20.50;43.70;;;;;;4809954;29;20038;-74
2021/01/30 03:30:36;;;;;;;10.32;2.53;;;20.50;43.70;;;;;;4809768;29;20038;-74
2021/01/30 03:33:02;;;;;;;13.57;2.50;;;20.50;43.80;;;;;;4795462;29;20185;-74
2021/01/30 03:35:28;;;;;;;10.68;2.08;;;20.50;43.70;;;;;;4810466;29;20030;-74
2021/01/30 03:38:03;;;;;;;11.27;2.30;;;20.50;43.80;;;;;;4810816;29;20513;-74
2021/01/30 03:40:29;;;;;;;15.57;2.47;;;20.50;43.80;;;;;;4795617;29;20495;-76
2021/01/30 03:42:54;;;;;;;9.32;2.33;;;20.40;43.80;;;;;;4795231;29;20038;-75
2021/01/30 03:45:25;;;;;;;8.38;2.25;;;20.40;43.80;;;;;;4826590;29;20037;-76
2021/01/30 03:47:51;;;;;;;10.73;2.28;;;20.40;43.80;;;;;;4826849;29;20035;-75
2021/01/30 03:50:17;;;;;;;13.40;2.92;;;20.40;43.80;;;;;;4795250;29;20095;-75
2021/01/30 03:52:42;;;;;;;13.65;2.13;;;20.40;43.80;;;;;;4810047;29;20022;-76
2021/01/30 03:55:09;;;;;;;9.05;2.35;;;20.40;43.90;;;;;;4826591;29;20210;-75
2021/01/30 03:57:35;;;;;;;8.88;1.95;;;20.40;43.90;;;;;;4812649;29;20030;-74
2021/01/30 04:00:00;;;;;;;9.02;2.28;;;20.40;43.80;;;;;;4810526;29;20042;-75
2021/01/30 04:02:26;;;;;;;10.68;2.35;;;20.40;43.90;;;;;;4794603;29;20488;-75
2021/01/30 04:04:52;;;;;;;10.55;2.40;;;20.40;43.90;;;;;;4826221;29;20060;-76
2021/01/30 04:07:17;;;;;;;7.05;1.83;;;20.40;43.90;;;;;;4826609;29;20034;-72
2021/01/30 04:09:43;;;;;;;12.70;2.83;;;20.40;43.90;;;;;;4809841;29;20049;-72
2021/01/30 04:12:08;;;;;;;7.28;2.10;;;20.30;43.90;;;;;;4809098;29;20051;-72
2021/01/30 04:14:34;;;;;;;11.13;2.65;;;20.40;43.90;;;;;;4794827;29;20106;-72
2021/01/30 04:17:00;;;;;;;6.93;2.13;;;20.40;44.00;;;;;;4810211;29;20045;-72
2021/01/30 04:19:25;;;;;;;7.55;1.85;;;20.30;43.90;;;;;;4810233;29;20038;-75
2021/01/30 04:21:51;;;;;;;8.52;2.38;;;20.30;43.90;;;;;;4825530;29;20046;-74
2021/01/30 04:24:16;;;;;;;8.07;1.80;;;20.30;44.00;;;;;;4794911;29;20042;-75
2021/01/30 04:26:46;;;;;;;9.93;2.13;;;20.30;44.00;;;;;;4826071;29;20408;-76
2021/01/30 04:29:11;;;;;;;5.88;1.77;;;20.30;44.00;;;;;;4824529;29;20035;-74
2021/01/30 04:31:37;;;;;;;5.32;1.83;;;20.40;44.00;;;;;;4805231;29;20045;-75
2021/01/30 04:34:03;;;;;;;6.15;1.92;;;20.30;43.90;;;;;;4825309;29;20030;-74
2021/01/30 04:36:28;;;;;;;4.80;2.13;;;20.40;44.00;;;;;;4809473;29;20578;-74
2021/01/30 04:38:54;;;;;;;5.28;1.80;;;20.40;43.90;;;;;;4824993;29;20106;-75
2021/01/30 04:41:40;;;;;;;4.45;1.80;;;20.30;43.90;;;;;;4809738;29;20031;-75
2021/01/30 04:44:22;;;;;;;3.65;1.33;;;20.40;44.00;;;;;;4825231;29;20049;-74
2021/01/30 04:47:25;;;;;;;1.08;0.65;;;20.40;44.00;;;;;;4809182;29;20033;-76
2021/01/30 04:50:10;;;;;;;1.25;0.90;;;20.40;43.90;;;;;;4824554;29;20095;-76
2021/01/30 04:53:16;;;;;;;1.35;1.20;;;20.40;43.90;;;;;;4824892;29;20399;-76
2021/01/30 04:56:01;;;;;;;0.38;0.38;;;20.40;43.90;;;;;;4809688;29;20065;-76
2021/01/30 04:58:48;;;;;;;0.13;0.13;;;20.30;43.90;;;;;;4834281;29;20046;-76
2021/01/30 05:01:32;;;;;;;0.60;0.38;;;20.30;43.90;;;;;;4795251;29;20534;-77
2021/01/30 05:04:33;;;;;;;0.17;0.15;;;20.30;43.90;;;;;;4825550;29;20030;-77
2021/01/30 05:07:22;;;;;;;1.65;0.70;;;20.30;44.00;;;;;;4787820;30;20078;-77
2021/01/30 05:10:03;;;;;;;0.73;0.50;;;20.30;44.00;;;;;;4786961;30;20039;-77
2021/01/30 05:12:50;;;;;;;0.95;0.40;;;20.30;44.00;;;;;;4773161;30;20035;-77
2021/01/30 05:15:37;;;;;;;0.30;0.20;;;20.30;44.00;;;;;;4780383;30;20062;-77
2021/01/30 05:18:06;;;;;;;3.17;0.75;;;20.20;44.00;;;;;;4771932;30;20078;-76
2021/01/30 05:20:37;;;;;;;0.57;0.30;;;20.20;44.00;;;;;;4773461;30;20031;-76
2021/01/30 05:23:04;;;;;;;0.52;0.35;;;20.20;43.90;;;;;;4766532;30;20526;-75
2021/01/30 05:25:29;;;;;;;0.25;0.25;;;20.20;44.00;;;;;;4772019;30;20047;-74
2021/01/30 05:28:05;;;;;;;0.93;0.60;;;20.20;44.00;;;;;;4782263;30;20114;-75
2021/01/30 05:30:55;;;;;;;0.73;0.50;;;20.20;44.00;;;;;;4786264;30;20123;-75
2021/01/30 05:33:40;;;;;;;0.98;0.50;;;20.20;44.00;;;;;;4787147;30;20031;-74
2021/01/30 05:36:21;;;;;;;0.10;0.10;;;20.20;43.90;;;;;;4776291;30;20044;-71
2021/01/30 05:39:27;;;;;;;0.32;0.32;;;20.10;43.90;;;;;;4785942;29;20050;-71
2021/01/30 05:42:07;;;;;;;0.65;0.38;;;20.20;44.00;;;;;;4788748;29;20031;-71
2021/01/30 05:44:51;;;;;;;0.10;0.10;;;20.10;43.90;;;;;;4814250;29;20041;-72
2021/01/30 05:47:22;;;;;;;0.82;0.50;;;20.10;43.90;;;;;;4824180;29;20046;-72
2021/01/30 05:50:12;;;;;;;1.70;0.70;;;20.10;43.90;;;;;;4809179;29;20576;-72
2021/01/30 05:52:37;;;;;;;1.30;0.45;;;20.10;43.90;;;;;;4793890;29;20037;-72
2021/01/30 05:55:21;;;;;;;0.90;0.43;;;20.10;43.80;;;;;;4822476;29;20473;-72
2021/01/30 05:57:47;;;;;;;0.55;0.40;;;20.10;43.80;;;;;;4794906;29;20122;-71
2021/01/30 06:00:19;;;;;;;0.73;0.43;;;20.00;43.80;;;;;;4807750;29;20042;-72
2021/01/30 06:03:12;;;;;;;0.28;0.20;;;20.00;43.80;;;;;;4793521;29;20034;-71
2021/01/30 06:05:48;;;;;;;1.00;0.30;;;20.00;43.80;;;;;;4794988;29;20537;-71
2021/01/30 06:08:29;;;;;;;3.10;0.47;;;20.00;43.80;;;;;;4792962;29;20134;-71
2021/01/30 06:11:10;;;;;;;0.45;0.45;;;20.00;43.90;;;;;;4837151;29;20027;-72
2021/01/30 06:14:00;;;;;;;0.25;0.25;;;20.00;43.70;;;;;;4824464;29;20038;-72
2021/01/30 06:16:48;;;;;;;0.57;0.30;;;20.00;43.70;;;;;;4789352;29;20035;-71
2021/01/30 06:22:36;;;;;;;0.40;0.30;;;20.00;43.60;;;;;;4823587;29;20049;-71
2021/01/30 06:25:21;;;;;;;0.30;0.30;;;20.00;43.50;;;;;;4792326;29;20095;-72
2021/01/30 06:27:46;;;;;;;0.93;0.40;;;20.00;43.50;;;;;;4824381;29;20045;-73
2021/01/30 06:30:14;;;;;;;0.40;0.40;;;20.00;43.50;;;;;;4811147;29;20476;-73
2021/01/30 06:32:58;;;;;;;0.93;0.55;;;20.00;43.40;;;;;;4794865;29;20054;-72
2021/01/30 06:35:25;;;;;;;0.32;0.32;;;20.00;43.50;;;;;;4792072;29;20038;-73
2021/01/30 06:38:00;;;;;;;1.20;0.30;;;20.00;43.40;;;;;;4778024;29;20038;-73
2021/01/30 06:40:35;;;;;;;6.97;0.47;;;20.00;43.30;;;;;;4823919;29;20052;-73
2021/01/30 06:43:11;;;;;;;0.10;0.10;;;20.10;43.30;;;;;;4806043;29;20027;-72
2021/01/30 06:45:38;;;;;;;0.63;0.30;;;20.20;43.10;;;;;;4806146;29;20034;-76
2021/01/30 06:48:08;;;;;;;0.40;0.40;;;20.30;42.90;;;;;;4823439;29;20031;-75
2021/01/30 06:50:40;;;;;;;1.10;0.55;;;20.40;42.80;;;;;;4806120;29;20046;-75
2021/01/30 06:53:27;;;;;;;0.10;0.10;;;20.40;42.60;;;;;;4797964;29;20094;-76
2021/01/30 06:55:53;;;;;;;0.70;0.28;;;20.50;42.50;;;;;;4732352;30;20078;-76
2021/01/30 06:58:34;;;;;;;0.13;0.13;;;20.50;42.40;;;;;;4703152;30;20521;-76
2021/01/30 07:01:22;;;;;;;0.45;0.30;;;20.60;42.20;;;;;;4718807;30;20477;-76
2021/01/30 07:04:02;;;;;;;0.60;0.52;;;20.70;42.10;;;;;;4717755;30;20049;-75
2021/01/30 07:06:50;;;;;;;0.40;0.28;;;20.70;41.90;;;;;;4717671;30;20052;-72
2021/01/30 07:09:24;;;;;;;0.10;0.10;;;20.70;41.80;;;;;;4731166;30;20587;-72
2021/01/30 07:11:53;;;;;;;0.20;0.20;;;20.80;41.70;;;;;;4730772;30;20042;-73
2021/01/30 07:14:31;;;;;;;0.10;0.10;;;20.90;41.60;;;;;;4717786;30;20127;-72
2021/01/30 07:17:07;;;;;;;2.67;0.40;;;20.90;41.30;;;;;;4718117;30;20047;-72
2021/01/30 07:19:45;;;;;;;1.00;0.30;;;21.00;41.20;;;;;;4731203;30;20049;-72
2021/01/30 07:22:12;;;;;;;1.40;0.30;;;21.10;41.10;;;;;;4716485;30;20056;-72
2021/01/30 07:24:51;;;;;;;0.50;0.30;;;21.10;40.90;;;;;;4717823;30;20082;-72
2021/01/30 07:27:21;;;;;;;1.75;0.60;;;21.10;40.60;;;;;;4717445;30;20041;-72
2021/01/30 07:30:08;;;;;;;1.80;0.73;;;21.20;40.50;;;;;;4716551;30;20033;-72
2021/01/30 07:32:57;;;;;;;0.68;0.50;;;21.20;40.30;;;;;;4733183;29;20061;-76
2021/01/30 07:35:26;;;;;;;1.17;0.60;;;21.20;40.10;;;;;;4801286;29;20018;-76
2021/01/30 07:38:18;;;;;;;5.90;0.60;;;21.20;40.10;;;;;;4791263;29;20026;-75
2021/01/30 07:41:00;;;;;;;3.38;0.80;;;21.20;40.10;;;;;;4813563;29;20109;-76
2021/01/30 07:43:27;;;;;;;0.28;0.28;;;21.30;40.10;;;;;;4804088;29;20041;-75
2021/01/30 07:46:06;;;;;;;0.98;0.55;;;21.30;40.00;;;;;;4794980;29;20141;-75
2021/01/30 07:48:34;;;;;;;0.75;0.50;;;21.20;39.80;;;;;;4823155;29;20083;-75
2021/01/30 07:51:08;;;;;;;1.95;0.68;;;21.20;39.80;;;;;;4821971;29;20093;-75
2021/01/30 07:53:33;;;;;;;0.40;0.30;;;21.30;39.80;;;;;;4806572;29;20026;-76
2021/01/30 07:56:12;;;;;;;0.75;0.50;;;21.30;39.80;;;;;;4823024;29;20053;-76
2021/01/30 07:59:20;;;;;;;7.07;0.85;;;21.30;39.70;;;;;;4799845;29;20054;-75
2021/01/30 08:02:04;;;;;;;2.85;1.27;;;21.30;39.60;;;;;;4772666;30;20066;-76
2021/01/30 08:04:38;;;;;;;0.75;0.20;;;21.30;39.60;;;;;;4777904;30;20062;-76
2021/01/30 08:07:22;;;;;;;0.38;0.30;;;21.30;39.60;;;;;;4770381;30;20043;-76
2021/01/30 08:10:04;;;;;;;1.58;0.60;;;21.20;39.60;;;;;;4750567;30;20536;-75
2021/01/30 08:12:39;;;;;;;0.20;0.20;;;21.30;39.70;;;;;;4751578;30;20069;-76
2021/01/30 08:15:11;;;;;;;1.38;0.20;;;21.20;39.70;;;;;;4769807;30;20463;-74
2021/01/30 08:18:12;;;;;;;0.43;0.10;;;21.20;39.70;;;;;;4768431;30;20513;-75
2021/01/30 08:20:49;;;;;;;0.20;0.20;;;21.20;39.80;;;;;;4733317;30;20067;-70
2021/01/30 08:23:20;;;;;;;0.70;0.30;;;21.20;39.60;;;;;;4727065;30;20128;-70
2021/01/30 08:25:58;;;;;;;3.22;0.32;;;21.30;39.70;;;;;;4732778;30;20056;-70
2021/01/30 08:28:28;;;;;;;0.25;0.10;;;21.30;39.60;;;;;;4722065;30;20121;-71
2021/01/30 08:30:54;;;;;;;0.50;0.20;;;21.30;39.60;;;;;;4714089;29;20534;-74
2021/01/30 08:33:20;;;;;;;0.30;0.30;;;21.30;39.50;;;;;;4696866;30;20082;-74
2021/01/30 08:35:55;;;;;;;0.55;0.45;;;21.30;39.40;;;;;;4696032;30;20533;-74
2021/01/30 08:38:21;;;;;;;0.50;0.20;;;21.40;39.50;;;;;;4729846;30;20044;-76
2021/01/30 08:40:52;;;;;;;0.40;0.40;;;21.40;39.50;;;;;;4769180;30;20043;-71
2021/01/30 08:43:43;;;;;;;0.47;0.38;;;21.30;39.40;;;;;;4754658;30;20406;-71
2021/01/30 08:46:34;;;;;;;1.20;0.40;;;21.30;39.40;;;;;;4754886;30;20159;-71
2021/01/30 08:49:15;;;;;;;0.57;0.40;;;21.30;39.40;;;;;;4754673;30;20052;-71
2021/01/30 08:51:45;;;;;;;1.38;0.10;;;21.30;39.50;;;;;;4767261;30;20613;-71
2021/01/30 08:54:37;;;;;;;3.33;0.32;;;21.20;39.40;;;;;;4739841;30;20047;-72
2021/01/30 08:57:04;;;;;;;0.68;0.40;;;21.20;39.40;;;;;;4801092;29;20043;-71
2021/01/30 08:59:43;;;;;;;1.08;0.45;;;21.20;39.50;;;;;;4779563;29;20034;-75
2021/01/30 09:02:31;;;;;;;0.85;0.30;;;21.20;39.40;;;;;;4807540;29;20491;-75
2021/01/30 09:05:13;;;;;;;0.47;0.28;;;21.20;39.40;;;;;;4823919;29;20066;-72
2021/01/30 09:07:48;;;;;;;0.60;0.30;;;21.20;39.50;;;;;;4807907;29;20075;-72
2021/01/30 09:10:22;;;;;;;1.02;0.30;;;21.20;39.40;;;;;;4808991;29;20412;-72
2021/01/30 09:13:17;;;;;;;0.40;0.40;;;21.20;39.40;;;;;;4818294;29;20104;-72
2021/01/30 09:15:42;;;;;;;0.35;0.20;;;21.10;39.30;;;;;;4796397;29;20105;-72
2021/01/30 09:18:36;;;;;;;0.20;0.20;;;21.10;39.30;;;;;;4822514;29;20507;-72
2021/01/30 09:21:16;;;;;;;2.80;0.40;;;21.20;39.20;;;;;;4817545;29;20540;-72
2021/01/30 09:24:09;;;;;;;0.22;0.20;;;21.10;39.20;;;;;;4793761;29;20042;-71
2021/01/30 09:27:13;;;;;;;0.30;0.30;;;21.10;39.00;;;;;;4795179;29;20561;-71
2021/01/30 09:29:41;;;;;;;0.20;0.20;;;21.10;39.00;;;;;;4795167;29;20045;-71
2021/01/30 09:32:07;;;;;;;0.95;0.20;;;21.20;39.00;;;;;;4814596;29;20393;-72
2021/01/30 09:34:46;;;;;;;0.70;0.10;;;21.20;38.90;;;;;;4797651;29;20072;-72
2021/01/30 09:37:31;;;;;;;0.60;0.30;;;21.20;38.90;;;;;;4782930;29;20441;-71
2021/01/30 09:39:57;;;;;;;0.45;0.30;;;21.30;38.80;;;;;;4798558;29;20059;-71
2021/01/30 09:42:23;;;;;;;0.30;0.20;;;21.30;38.80;;;;;;4820028;29;20073;-71
2021/01/30 09:45:10;;;;;;;0.22;0.22;;;21.20;38.70;;;;;;4794734;29;20476;-71
2021/01/30 09:47:37;;;;;;;1.08;0.30;;;21.20;38.60;;;;;;4797780;29;20035;-71
2021/01/30 09:50:05;;;;;;;0.28;0.28;;;21.30;38.60;;;;;;4792473;29;20046;-72
2021/01/30 09:52:31;;;;;;;0.13;0.13;;;21.20;38.50;;;;;;4798028;29;20034;-71
2021/01/30 09:55:06;;;;;;;0.20;0.20;;;21.20;38.50;;;;;;4796108;29;20037;-72
2021/01/30 09:57:32;;;;;;;0.20;0.17;;;21.20;38.50;;;;;;4784590;29;20463;-72
2021/01/30 10:00:00;;;;;;;0.20;0.20;;;21.20;38.50;;;;;;4785452;29;20065;-73
2021/01/30 10:02:27;;;;;;;0.20;0.20;;;21.10;38.50;;;;;;4810769;29;20525;-72
2021/01/30 10:05:14;;;;;;;1.73;0.30;;;21.10;38.60;;;;;;4789965;29;20030;-72
2021/01/30 10:07:39;;;;;;;2.75;2.55;;;21.10;38.50;;;;;;4809322;29;20027;-72
2021/01/30 10:10:31;;;;;;;0.35;0.30;;;21.10;38.50;;;;;;4791481;29;20072;-72
2021/01/30 10:12:58;;;;;;;0.57;0.43;;;21.10;38.60;;;;;;4808890;29;20054;-72
2021/01/30 10:15:32;;;;;;;0.20;0.20;;;21.10;38.60;;;;;;4791350;29;20092;-72
2021/01/30 10:18:06;;;;;;;5.65;5.18;;;21.10;38.70;;;;;;4775502;29;20034;-72
2021/01/30 10:20:42;;;;;;;0.17;0.10;;;21.00;38.60;;;;;;4804143;29;20034;-72
2021/01/30 10:23:07;;;;;;;;;;;21.00;38.70;;;;;;4815192;29;20075;-72
2021/01/30 10:25:33;;;;;;;1.23;0.40;;;21.00;38.60;;;;;;4821015;29;19921;-72
2021/01/30 10:28:13;;;;;;;3.10;0.22;;;21.00;38.60;;;;;;4802211;29;20051;-72
2021/01/30 10:30:39;;;;;;;0.20;0.20;;;21.00;38.60;;;;;;4791596;29;22092;-72
2021/01/30 10:33:11;;;;;;;0.32;0.30;;;21.00;38.50;;;;;;4792150;29;20113;-72
2021/01/30 10:35:43;;;;;;;6.18;5.68;;;21.00;38.70;;;;;;4792241;29;20030;-72
2021/01/30 10:38:11;;;;;;;0.40;0.40;;;21.00;38.60;;;;;;4807622;29;20107;-72
2021/01/30 10:40:44;;;;;;;0.30;0.30;;;21.00;38.50;;;;;;4791629;29;20022;-72
2021/01/30 10:43:16;;;;;;;0.35;0.35;;;21.00;38.50;;;;;;4791935;29;20022;-73
2021/01/30 10:45:44;;;;;;;1.58;0.55;;;21.00;38.50;;;;;;4792504;29;20399;-72
2021/01/30 10:48:11;;;;;;;0.55;0.50;;;21.00;38.40;;;;;;4792083;29;20526;-72
2021/01/30 10:50:39;;;;;;;6.03;5.53;;;20.90;38.40;;;;;;4792466;29;20034;-72
2021/01/30 10:53:23;;;;;;;1.65;0.68;;;20.90;38.40;;;;;;4791686;29;20572;-72
2021/01/30 10:55:49;;;;;;;3.33;0.55;;;20.90;38.40;;;;;;4822786;29;20054;-71
2021/01/30 10:58:24;;;;;;;0.70;0.57;;;20.90;38.40;;;;;;4790734;29;20037;-76
2021/01/30 11:01:09;;;;;;;0.75;0.65;;;20.90;38.40;;;;;;4821719;29;20081;-76
2021/01/30 11:03:55;;;;;;;6.82;5.03;;;20.90;38.40;;;;;;4807248;29;20029;-77
2021/01/30 11:06:43;;;;;;;0.50;0.50;;;20.90;38.40;;;;;;4820144;29;20118;-76
2021/01/30 11:09:21;;;;;;;0.60;0.60;;;20.90;38.40;;;;;;4791581;29;20038;-76
2021/01/30 11:11:49;;;;;;;0.73;0.45;;;20.90;38.40;;;;;;4821052;29;20022;-76
2021/01/30 11:14:25;;;;;;;7.15;6.45;;;20.90;38.40;;;;;;4818314;29;20090;-72
2021/01/30 11:16:51;;;;;;;1.15;0.85;;;20.90;38.40;;;;;;4801082;29;20046;-72
2021/01/30 11:19:26;;;;;;;0.85;0.52;;;20.90;38.30;;;;;;4803782;29;20034;-70
2021/01/30 11:22:24;;;;;;;1.05;0.73;;;20.90;38.30;;;;;;4786755;29;20082;-72
2021/01/30 11:24:51;;;;;;;9.25;8.38;;;20.90;38.30;;;;;;4822198;29;20065;-72
2021/01/30 11:27:38;;;;;;;0.70;0.45;;;20.90;38.20;;;;;;4806701;29;20396;-72
2021/01/30 11:30:40;;;;;;;0.30;0.13;;;20.90;38.10;;;;;;4823680;29;20611;-71
2021/01/30 11:33:15;;;;;;;0.35;0.32;;;21.00;38.00;;;;;;4797715;29;20031;-72
2021/01/30 11:35:43;;;;;;;1.55;0.80;;;21.00;37.80;;;;;;4791170;29;20056;-72
2021/01/30 11:38:17;;;;;;;1.00;0.90;;;21.10;37.80;;;;;;4774597;29;20549;-72
2021/01/30 11:40:43;;;;;;;8.73;7.90;;;21.10;37.70;;;;;;4776590;29;20027;-72
2021/01/30 11:43:09;;;;;;;0.85;0.47;;;21.10;37.40;;;;;;4804445;29;20081;-69
2021/01/30 11:45:35;;;;;;;1.70;0.90;;;21.10;37.40;;;;;;4822371;29;20499;-71
2021/01/30 11:48:00;;;;;;;0.70;0.70;;;21.10;37.50;;;;;;4824080;29;20491;-70
2021/01/30 11:50:44;;;;;;;2.85;0.73;;;21.10;37.40;;;;;;4825760;29;20041;-71
2021/01/30 11:53:11;;;;;;;1.33;0.68;;;21.10;37.40;;;;;;4825811;29;20073;-71
2021/01/30 11:55:37;;;;;;;0.88;0.70;;;21.10;37.40;;;;;;4806163;29;20031;-71
2021/01/30 11:58:03;;;;;;;1.02;0.85;;;21.10;37.40;;;;;;4807957;29;20125;-71
2021/01/30 12:00:28;;;;;;;0.95;0.77;;;21.00;37.40;;;;;;4821764;29;20098;-71
2021/01/30 12:02:54;;;;;;;0.60;0.40;;;21.00;37.50;;;;;;4809609;29;20043;-71
2021/01/30 12:05:20;;;;;;;0.88;0.85;;;21.00;37.50;;;;;;4817060;29;20035;-72
2021/01/30 12:07:45;;;;;;;1.00;0.70;;;21.00;37.50;;;;;;4810298;29;20042;-71
2021/01/30 12:10:11;;;;;;;1.10;1.00;;;21.00;37.50;;;;;;4822468;29;20523;-71
2021/01/30 12:12:37;;;;;;;0.80;0.80;;;21.00;37.50;;;;;;4816459;29;20105;-71
2021/01/30 12:15:05;;;;;;;1.92;1.00;;;20.90;37.40;;;;;;4809320;29;20083;-71
2021/01/30 12:17:44;;;;;;;1.67;0.80;;;20.90;37.50;;;;;;4808983;29;20465;-72
2021/01/30 12:20:24;;;;;;;11.77;10.57;;;20.90;37.60;;;;;;4822015;29;20027;-71
2021/01/30 12:22:49;;;;;;;1.33;0.73;;;20.80;37.50;;;;;;4827175;29;20521;-70
2021/01/30 12:25:16;;;;;;;0.80;0.60;;;20.80;37.60;;;;;;4809048;29;20123;-72
2021/01/30 12:27:43;;;;;;;1.63;0.77;;;20.80;37.50;;;;;;4809544;29;20149;-71
2021/01/30 12:30:09;;;;;;;2.83;0.88;;;20.80;37.60;;;;;;4795236;29;20466;-71
2021/01/30 12:32:35;;;;;;;1.45;1.17;;;20.80;37.70;;;;;;4825557;29;20521;-71
2021/01/30 12:35:02;;;;;;;4.00;1.48;;;20.80;37.70;;;;;;4794141;29;20038;-71
2021/01/30 12:37:28;;;;;;;0.93;0.90;;;20.80;37.80;;;;;;4827979;29;20029;-72
2021/01/30 12:39:53;;;;;;;1.98;1.40;;;20.80;37.70;;;;;;4813182;29;20113;-72
2021/01/30 12:42:19;;;;;;;1.45;0.63;;;20.80;37.70;;;;;;4807171;29;20564;-72
2021/01/30 12:44:44;;;;;;;3.72;1.77;;;20.80;38.20;;;;;;4792536;29;20061;-76
2021/01/30 12:47:10;;;;;;;3.25;2.17;;;20.80;37.60;;;;;;4808632;29;20530;-77
2021/01/30 12:49:35;;;;;;;4.22;1.83;;;20.80;37.50;;;;;;4825434;29;20035;-76
2021/01/30 12:52:01;;;;;;;5.05;1.67;;;20.80;37.50;;;;;;4811275;29;20387;-77
2021/01/30 12:54:27;;;;;;;2.10;1.10;;;20.80;37.60;;;;;;4825189;29;20053;-76
2021/01/30 12:56:52;;;;;;;3.30;1.70;;;20.80;37.60;;;;;;4808111;29;20038;-76
2021/01/30 12:59:18;;;;;;;4.18;2.00;;;20.80;37.60;;;;;;4826957;29;20026;-77
2021/01/30 13:01:43;;;;;;;1.63;1.10;;;20.80;37.80;;;;;;4824386;29;20141;-75
2021/01/30 13:04:12;;;;;;;2.15;1.52;;;20.80;37.80;;;;;;4823187;29;20045;-75
2021/01/30 13:06:37;;;;;;;4.55;2.08;;;20.80;37.70;;;;;;4823973;29;20027;-75
2021/01/30 13:09:03;;;;;;;6.38;1.45;;;20.80;37.70;;;;;;4825088;29;20038;-75
2021/01/30 13:11:29;;;;;;;4.10;2.08;;;20.70;37.60;;;;;;4785761;29;20054;-75
2021/01/30 13:13:54;;;;;;;3.40;2.20;;;20.70;37.60;;;;;;4824777;29;20046;-75
2021/01/30 13:16:20;;;;;;;3.22;1.90;;;20.70;37.60;;;;;;4822898;29;20091;-76
2021/01/30 13:18:45;;;;;;;5.45;1.88;;;20.70;37.40;;;;;;4825306;29;20504;-77